createdAt,value
2018-11-11T00:00:16.404Z,2.8
2018-11-11T00:01:06.429Z,2.8
2018-11-11T00:01:57.099Z,2.8
2018-11-11T00:02:46.807Z,2.9
2018-11-11T00:03:36.916Z,2.9
2018-11-11T00:04:26.763Z,2.9
2018-11-11T00:05:16.761Z,2.9
2018-11-11T00:06:07.106Z,2.9
2018-11-11T00:06:56.846Z,2.9
2018-11-11T00:25:05.409Z,2.7
2018-11-11T00:25:55.808Z,2.7
2018-11-11T00:26:45.833Z,2.7
2018-11-11T00:27:36.213Z,2.6
2018-11-11T00:28:26.787Z,2.6
2018-11-11T00:29:16.655Z,2.6
2018-11-11T00:30:05.793Z,2.6
2018-11-11T00:30:56.141Z,2.6
2018-11-11T00:31:45.914Z,2.6
2018-11-11T00:32:35.954Z,2.6
2018-11-11T00:33:26.311Z,2.6
2018-11-11T00:34:16.350Z,2.7
2018-11-11T00:35:05.944Z,2.7
2018-11-11T00:35:56.480Z,2.7
2018-11-11T00:36:46.527Z,2.6
2018-11-11T00:37:36.921Z,2.6
2018-11-11T00:38:26.402Z,2.6
2018-11-11T00:39:17.022Z,2.6
2018-11-11T00:40:06.360Z,2.6
2018-11-11T00:40:56.575Z,2.7
2018-11-11T00:41:47.204Z,2.6
2018-11-11T00:42:37.280Z,2.6
2018-11-11T00:43:27.326Z,2.7
2018-11-11T00:44:16.667Z,2.7
2018-11-11T00:45:06.887Z,2.7
2018-11-11T00:45:57.477Z,2.8
2018-11-11T00:46:47.085Z,2.8
2018-11-11T00:47:37.433Z,2.8
2018-11-11T00:48:27.432Z,2.7
2018-11-11T00:49:17.235Z,2.7
2018-11-11T00:50:07.231Z,2.7
2018-11-11T00:50:58.333Z,2.7
2018-11-11T00:51:47.906Z,2.7
2018-11-11T00:52:37.186Z,2.7
2018-11-11T00:53:27.491Z,2.7
2018-11-11T00:54:17.806Z,2.7
2018-11-11T00:55:07.889Z,2.6
2018-11-11T00:55:58.156Z,2.6
2018-11-11T00:56:48.278Z,2.5
2018-11-11T00:57:38.071Z,2.6
2018-11-11T00:58:28.396Z,2.6
2018-11-11T00:59:18.436Z,2.6
2018-11-11T01:00:08.219Z,2.5
2018-11-11T01:00:57.977Z,2.4
2018-11-11T01:01:48.631Z,2.3
2018-11-11T01:02:38.400Z,2.3
2018-11-11T01:03:28.755Z,2.3
2018-11-11T01:04:19.108Z,2.3
2018-11-11T01:05:09.170Z,2.2
2018-11-11T01:05:58.949Z,2.2
2018-11-11T01:06:48.995Z,2.2
2018-11-11T01:07:38.761Z,2.1
2018-11-11T01:08:29.103Z,2.1
2018-11-11T01:09:19.175Z,2
2018-11-11T01:10:09.753Z,2.1
2018-11-11T01:10:58.795Z,2.1
2018-11-11T01:11:49.058Z,1.9
2018-11-11T01:12:39.155Z,1.9
2018-11-11T01:13:28.880Z,1.9
2018-11-11T01:14:18.964Z,1.9
2018-11-11T01:15:08.940Z,1.9
2018-11-11T01:15:59.701Z,1.8
2018-11-11T01:16:49.492Z,1.8
2018-11-11T01:17:39.771Z,1.6
2018-11-11T01:18:29.554Z,1.5
2018-11-11T01:19:19.642Z,1.4
2018-11-11T01:20:09.975Z,1.3
2018-11-11T01:21:00.018Z,1.3
2018-11-11T01:21:50.363Z,1.2
2018-11-11T01:22:40.132Z,1.1
2018-11-11T01:23:29.364Z,1
2018-11-11T01:24:19.779Z,1
2018-11-11T01:25:10.016Z,1
2018-11-11T01:26:00.119Z,1
2018-11-11T01:26:50.389Z,0.9
2018-11-11T01:27:40.514Z,0.9
2018-11-11T01:28:30.559Z,0.9
2018-11-11T01:29:20.367Z,0.8
2018-11-11T01:30:10.405Z,0.8
2018-11-11T01:31:00.749Z,0.8
2018-11-11T01:31:50.019Z,0.8
2018-11-11T01:32:41.175Z,0.8
2018-11-11T01:33:30.437Z,0.8
2018-11-11T01:34:20.403Z,0.8
2018-11-11T01:35:10.191Z,0.9
2018-11-11T01:36:01.386Z,0.9
2018-11-11T01:36:51.194Z,1
2018-11-11T01:37:41.216Z,1.1
2018-11-11T01:38:31.133Z,1.1
2018-11-11T01:39:20.864Z,1.2
2018-11-11T01:40:11.427Z,1.2
2018-11-11T01:41:01.176Z,1.3
2018-11-11T01:41:51.203Z,1.3
2018-11-11T01:42:41.684Z,1.4
2018-11-11T01:43:30.888Z,1.4
2018-11-11T01:44:21.758Z,1.4
2018-11-11T01:45:11.470Z,1.4
2018-11-11T01:46:01.249Z,1.4
2018-11-11T01:46:51.591Z,1.5
2018-11-11T01:47:41.648Z,1.5
2018-11-11T01:48:31.410Z,1.5
2018-11-11T01:49:21.491Z,1.6
2018-11-11T01:50:12.108Z,1.6
2018-11-11T01:51:02.256Z,1.6
2018-11-11T01:51:52.274Z,1.7
2018-11-11T01:52:42.014Z,1.8
2018-11-11T01:53:31.778Z,1.7
2018-11-11T01:54:22.238Z,1.7
2018-11-11T01:55:12.489Z,1.7
2018-11-11T01:56:01.970Z,1.6
2018-11-11T01:56:52.398Z,1.6
2018-11-11T01:57:42.259Z,1.6
2018-11-11T01:58:32.722Z,1.5
2018-11-11T01:59:22.515Z,1.6
2018-11-11T02:00:11.962Z,1.6
2018-11-11T02:01:03.215Z,1.6
2018-11-11T02:01:52.455Z,1.6
2018-11-11T02:02:43.000Z,1.6
2018-11-11T02:03:32.502Z,1.6
2018-11-11T02:04:23.412Z,1.6
2018-11-11T02:05:12.929Z,1.6
2018-11-11T02:06:02.705Z,1.6
2018-11-11T02:06:53.347Z,1.6
2018-11-11T02:07:42.525Z,1.6
2018-11-11T02:08:33.776Z,1.6
2018-11-11T02:09:22.925Z,1.6
2018-11-11T02:10:12.996Z,1.6
2018-11-11T02:11:02.855Z,1.6
2018-11-11T02:11:53.477Z,1.6
2018-11-11T02:12:44.002Z,1.6
2018-11-11T02:13:33.598Z,1.6
2018-11-11T02:14:23.866Z,1.6
2018-11-11T02:15:13.361Z,1.6
2018-11-11T02:16:03.516Z,1.6
2018-11-11T02:16:53.264Z,1.6
2018-11-11T02:17:43.583Z,1.6
2018-11-11T02:18:33.458Z,1.7
2018-11-11T02:19:23.756Z,1.6
2018-11-11T02:20:13.537Z,1.7
2018-11-11T02:21:03.748Z,1.7
2018-11-11T02:21:54.203Z,1.7
2018-11-11T02:22:44.309Z,1.6
2018-11-11T02:23:34.807Z,1.6
2018-11-11T02:24:24.083Z,1.8
2018-11-11T02:25:14.353Z,1.8
2018-11-11T02:26:04.485Z,1.7
2018-11-11T02:26:55.059Z,1.6
2018-11-11T02:27:44.303Z,1.6
2018-11-11T02:28:33.635Z,1.7
2018-11-11T02:29:23.870Z,1.7
2018-11-11T02:30:14.320Z,1.7
2018-11-11T02:31:04.563Z,1.8
2018-11-11T02:31:54.905Z,1.8
2018-11-11T02:32:44.414Z,1.8
2018-11-11T02:33:33.986Z,1.9
2018-11-11T02:34:24.532Z,1.9
2018-11-11T02:35:14.404Z,1.9
2018-11-11T02:36:04.463Z,1.9
2018-11-11T02:36:54.300Z,1.9
2018-11-11T02:37:45.664Z,1.9
2018-11-11T02:38:34.343Z,2
2018-11-11T02:39:25.709Z,2
2018-11-11T02:40:14.952Z,2
2018-11-11T02:41:05.285Z,1.9
2018-11-11T02:41:55.059Z,1.9
2018-11-11T02:42:44.862Z,2
2018-11-11T02:43:35.722Z,2
2018-11-11T02:44:26.071Z,1.9
2018-11-11T02:45:15.600Z,2
2018-11-11T02:46:05.340Z,1.9
2018-11-11T02:46:56.002Z,1.9
2018-11-11T02:47:45.284Z,1.9
2018-11-11T02:48:35.850Z,1.9
2018-11-11T02:49:25.608Z,2
2018-11-11T02:50:15.315Z,2.1
2018-11-11T02:51:05.787Z,2
2018-11-11T02:51:56.097Z,1.9
2018-11-11T02:52:45.564Z,1.9
2018-11-11T02:53:35.665Z,1.8
2018-11-11T02:54:25.702Z,1.8
2018-11-11T02:55:16.315Z,1.8
2018-11-11T02:56:06.090Z,1.8
2018-11-11T02:56:56.107Z,1.8
2018-11-11T02:57:45.935Z,1.8
2018-11-11T02:58:36.312Z,1.8
2018-11-11T02:59:26.317Z,1.8
2018-11-11T03:00:16.107Z,1.9
2018-11-11T03:01:06.721Z,1.8
2018-11-11T03:01:56.300Z,1.8
2018-11-11T03:02:46.869Z,1.8
2018-11-11T03:03:36.911Z,1.7
2018-11-11T03:04:27.045Z,1.7
2018-11-11T03:05:17.031Z,1.6
2018-11-11T03:06:07.096Z,1.6
2018-11-11T03:06:56.846Z,1.8
2018-11-11T03:07:47.536Z,1.9
2018-11-11T03:08:36.821Z,1.8
2018-11-11T03:09:28.118Z,1.7
2018-11-11T03:10:17.917Z,1.6
2018-11-11T03:11:07.904Z,1.6
2018-11-11T03:11:58.012Z,1.5
2018-11-11T03:12:47.879Z,1.5
2018-11-11T03:13:37.910Z,1.5
2018-11-11T03:14:28.191Z,1.4
2018-11-11T03:15:18.020Z,1.4
2018-11-11T03:16:07.533Z,1.4
2018-11-11T03:16:58.080Z,1.3
2018-11-11T03:17:47.649Z,1.3
2018-11-11T03:18:38.195Z,1.3
2018-11-11T03:19:28.474Z,1.3
2018-11-11T03:20:18.605Z,1.3
2018-11-11T03:21:08.148Z,1.2
2018-11-11T03:21:58.248Z,1.1
2018-11-11T03:22:47.790Z,1.1
2018-11-11T03:23:39.125Z,1.1
2018-11-11T03:24:28.720Z,1.1
2018-11-11T03:25:17.983Z,1.1
2018-11-11T03:26:07.939Z,1.1
2018-11-11T03:26:58.860Z,1.1
2018-11-11T03:27:48.644Z,1.1
2018-11-11T03:28:38.985Z,1.2
2018-11-11T03:29:28.752Z,1.3
2018-11-11T03:30:18.848Z,1.3
2018-11-11T03:31:09.047Z,1.3
2018-11-11T03:31:59.770Z,1.2
2018-11-11T03:32:49.782Z,1.2
2018-11-11T03:33:39.393Z,1.2
2018-11-11T03:34:29.969Z,1.2
2018-11-11T03:35:19.102Z,1.2
2018-11-11T03:36:09.718Z,1.3
2018-11-11T03:37:00.030Z,1.3
2018-11-11T03:37:50.144Z,1.3
2018-11-11T03:38:39.139Z,1.3
2018-11-11T03:39:30.256Z,1.3
2018-11-11T03:40:19.504Z,1.3
2018-11-11T03:41:10.092Z,1.3
2018-11-11T03:41:59.889Z,1.2
2018-11-11T03:42:50.205Z,1.1
2018-11-11T03:43:39.978Z,1.2
2018-11-11T03:44:29.858Z,1.2
2018-11-11T03:45:20.684Z,1.2
2018-11-11T03:46:10.258Z,1.2
2018-11-11T03:47:00.509Z,1.3
2018-11-11T03:47:50.664Z,1.3
2018-11-11T03:48:40.446Z,1.2
2018-11-11T03:49:30.413Z,1.3
2018-11-11T03:50:20.141Z,1.3
2018-11-11T03:51:10.600Z,1.2
2018-11-11T03:52:00.860Z,1.2
2018-11-11T03:52:51.258Z,1.2
2018-11-11T03:53:40.123Z,1.2
2018-11-11T03:54:31.066Z,1.2
2018-11-11T03:55:21.093Z,1.1
2018-11-11T03:56:10.863Z,1.1
2018-11-11T03:57:01.503Z,1.1
2018-11-11T03:57:51.829Z,1
2018-11-11T03:58:41.567Z,0.9
2018-11-11T03:59:30.643Z,0.9
2018-11-11T04:00:21.471Z,0.8
2018-11-11T04:01:11.037Z,0.8
2018-11-11T04:02:01.105Z,0.8
2018-11-11T04:02:51.433Z,0.7
2018-11-11T04:03:41.488Z,0.6
2018-11-11T04:04:31.183Z,0.6
2018-11-11T04:05:21.027Z,0.6
2018-11-11T04:06:12.105Z,0.6
2018-11-11T04:07:01.559Z,0.6
2018-11-11T04:07:52.022Z,0.6
2018-11-11T04:08:41.577Z,0.6
2018-11-11T04:09:32.122Z,0.4
2018-11-11T04:10:22.673Z,0.4
2018-11-11T04:11:12.221Z,0.3
2018-11-11T04:12:01.732Z,0.3
2018-11-11T04:12:52.350Z,0.3
2018-11-11T04:13:42.157Z,0.3
2018-11-11T04:14:31.909Z,0.4
2018-11-11T04:15:22.540Z,0.4
2018-11-11T04:16:12.339Z,0.3
2018-11-11T04:17:02.757Z,0.3
2018-11-11T04:17:52.720Z,0.1
2018-11-11T04:18:43.068Z,0.1
2018-11-11T04:19:32.940Z,0.1
2018-11-11T04:20:23.222Z,0
2018-11-11T04:21:12.281Z,0
2018-11-11T04:22:03.009Z,-0.1
2018-11-11T04:22:52.884Z,-0.1
2018-11-11T04:23:43.656Z,-0.1
2018-11-11T04:24:32.632Z,0.1
2018-11-11T04:25:22.969Z,0
2018-11-11T04:26:12.834Z,0
2018-11-11T04:27:03.671Z,-0.1
2018-11-11T04:27:53.519Z,-0.1
2018-11-11T04:28:43.814Z,-0.1
2018-11-11T04:29:33.273Z,-0.1
2018-11-11T04:30:23.651Z,-0.2
2018-11-11T04:31:14.179Z,-0.2
2018-11-11T04:32:04.021Z,-0.3
2018-11-11T04:32:53.500Z,-0.3
2018-11-11T04:33:43.856Z,-0.3
2018-11-11T04:34:33.928Z,-0.3
2018-11-11T04:35:23.705Z,-0.3
2018-11-11T04:36:13.545Z,-0.3
2018-11-11T04:54:16.906Z,-0.3
2018-11-11T04:55:07.142Z,-0.3
2018-11-11T04:55:57.402Z,-0.3
2018-11-11T04:56:47.460Z,-0.3
2018-11-11T04:57:37.528Z,-0.3
2018-11-11T04:58:27.326Z,-0.3
2018-11-11T04:59:17.311Z,-0.3
2018-11-11T05:00:07.210Z,-0.2
2018-11-11T05:00:57.174Z,-0.2
2018-11-11T05:01:47.546Z,-0.3
2018-11-11T05:02:37.295Z,-0.3
2018-11-11T05:03:27.351Z,-0.3
2018-11-11T05:04:18.005Z,-0.3
2018-11-11T05:05:07.722Z,-0.3
2018-11-11T05:05:57.255Z,-0.1
2018-11-11T05:06:48.153Z,-0.1
2018-11-11T05:07:37.957Z,-0.1
2018-11-11T05:08:27.731Z,0
2018-11-11T05:09:18.042Z,0
2018-11-11T05:10:08.443Z,0
2018-11-11T05:10:57.908Z,0
2018-11-11T05:11:48.238Z,0
2018-11-11T05:12:37.985Z,0.1
2018-11-11T05:13:27.505Z,0.2
2018-11-11T05:14:17.663Z,0.3
2018-11-11T05:15:07.825Z,0.3
2018-11-11T05:15:58.034Z,0.4
2018-11-11T05:16:48.305Z,0.4
2018-11-11T05:17:38.630Z,0.4
2018-11-11T05:18:28.609Z,0.4
2018-11-11T05:19:18.787Z,0.5
2018-11-11T05:20:08.615Z,0.6
2018-11-11T05:20:58.557Z,0.6
2018-11-11T05:21:48.961Z,0.6
2018-11-11T05:22:39.032Z,0.6
2018-11-11T05:23:28.582Z,0.6
2018-11-11T05:24:19.126Z,0.6
2018-11-11T05:25:08.412Z,0.6
2018-11-11T05:25:59.519Z,0.6
2018-11-11T05:26:49.312Z,0.6
2018-11-11T05:27:39.354Z,0.6
2018-11-11T05:28:29.421Z,0.6
2018-11-11T05:29:19.192Z,0.6
2018-11-11T05:30:09.516Z,0.6
2018-11-11T05:30:59.470Z,0.6
2018-11-11T05:31:49.679Z,0.6
2018-11-11T05:32:39.734Z,0.6
2018-11-11T05:33:29.002Z,0.6
2018-11-11T05:34:20.124Z,0.6
2018-11-11T05:35:09.627Z,0.6
2018-11-11T05:35:59.464Z,0.5
2018-11-11T05:36:50.046Z,0.5
2018-11-11T05:37:39.809Z,0.5
2018-11-11T05:38:29.868Z,0.5
2018-11-11T05:39:19.434Z,0.6
2018-11-11T05:40:09.588Z,0.6
2018-11-11T05:41:00.836Z,0.7
2018-11-11T05:41:49.631Z,0.8
2018-11-11T05:42:40.133Z,0.8
2018-11-11T05:43:30.518Z,0.8
2018-11-11T05:44:20.576Z,0.9
2018-11-11T05:45:10.333Z,0.9
2018-11-11T05:46:00.656Z,0.9
2018-11-11T05:46:50.555Z,0.9
2018-11-11T05:47:40.238Z,0.9
2018-11-11T05:48:30.268Z,0.8
2018-11-11T05:49:20.153Z,0.8
2018-11-11T05:50:10.798Z,0.9
2018-11-11T05:51:01.553Z,0.9
2018-11-11T05:51:50.619Z,0.9
2018-11-11T05:52:41.485Z,0.9
2018-11-11T05:53:30.998Z,0.9
2018-11-11T05:54:20.305Z,1.1
2018-11-11T05:55:11.630Z,1.1
2018-11-11T05:56:01.640Z,1.2
2018-11-11T05:56:51.180Z,1.2
2018-11-11T05:57:41.210Z,1.2
2018-11-11T05:58:31.905Z,1.3
2018-11-11T05:59:21.144Z,1.3
2018-11-11T06:00:11.686Z,1.3
2018-11-11T06:01:01.825Z,1.4
2018-11-11T06:01:51.500Z,1.4
2018-11-11T06:02:41.189Z,1.4
2018-11-11T06:03:31.349Z,1.5
2018-11-11T06:04:21.788Z,1.5
2018-11-11T06:05:11.472Z,1.6
2018-11-11T06:06:02.070Z,1.6
2018-11-11T06:06:51.434Z,1.6
2018-11-11T06:07:41.737Z,1.6
2018-11-11T06:08:32.479Z,1.7
2018-11-11T06:09:22.339Z,1.8
2018-11-11T06:10:12.194Z,1.8
2018-11-11T06:11:02.163Z,1.8
2018-11-11T06:11:52.794Z,1.8
2018-11-11T06:12:42.293Z,1.9
2018-11-11T06:13:32.349Z,1.9
2018-11-11T06:14:22.711Z,2
2018-11-11T06:15:12.844Z,2.1
2018-11-11T06:16:02.437Z,2.1
2018-11-11T06:16:52.736Z,2.1
2018-11-11T06:17:42.924Z,2.1
2018-11-11T06:18:33.269Z,2.1
2018-11-11T06:19:22.771Z,2.3
2018-11-11T06:20:13.404Z,2.3
2018-11-11T06:21:03.183Z,2.3
2018-11-11T06:21:53.824Z,2.4
2018-11-11T06:22:43.371Z,2.4
2018-11-11T06:23:33.071Z,2.4
2018-11-11T06:24:23.201Z,2.4
2018-11-11T06:25:13.469Z,2.4
2018-11-11T06:26:03.838Z,2.5
2018-11-11T06:26:53.111Z,2.4
2018-11-11T06:27:43.477Z,2.4
2018-11-11T06:28:33.428Z,2.4
2018-11-11T06:29:23.773Z,2.4
2018-11-11T06:30:13.838Z,2.4
2018-11-11T06:31:03.414Z,2.6
2018-11-11T06:31:54.214Z,2.6
2018-11-11T06:32:43.420Z,2.6
2018-11-11T06:33:34.353Z,2.7
2018-11-11T06:34:24.238Z,2.7
2018-11-11T06:35:14.471Z,2.8
2018-11-11T06:36:03.760Z,2.9
2018-11-11T06:36:53.838Z,2.8
2018-11-11T06:37:43.778Z,2.8
2018-11-11T06:38:34.407Z,2.8
2018-11-11T06:39:24.455Z,2.8
2018-11-11T06:40:14.038Z,2.9
2018-11-11T06:41:04.023Z,2.9
2018-11-11T06:41:54.689Z,3
2018-11-11T06:42:45.010Z,3.1
2018-11-11T06:43:34.188Z,3.1
2018-11-11T06:44:24.268Z,3.1
2018-11-11T06:45:14.895Z,3.1
2018-11-11T06:46:04.677Z,3.1
2018-11-11T06:46:55.235Z,3.1
2018-11-11T06:47:44.295Z,3.2
2018-11-11T06:48:34.829Z,3.3
2018-11-11T06:49:24.317Z,3.4
2018-11-11T06:50:15.556Z,3.5
2018-11-11T06:51:05.287Z,3.5
2018-11-11T06:51:55.069Z,3.5
2018-11-11T06:52:45.699Z,3.7
2018-11-11T06:53:35.202Z,3.9
2018-11-11T06:54:25.628Z,3.9
2018-11-11T06:55:15.118Z,4.1
2018-11-11T06:56:05.071Z,4.3
2018-11-11T06:56:55.442Z,4.1
2018-11-11T06:57:45.262Z,4.1
2018-11-11T06:58:35.664Z,4.2
2018-11-11T06:59:25.904Z,4.1
2018-11-11T07:00:15.396Z,4.2
2018-11-11T07:01:06.039Z,4.3
2018-11-11T07:01:55.794Z,4.2
2018-11-11T07:02:46.122Z,4.3
2018-11-11T07:03:35.576Z,4.3
2018-11-11T07:04:26.547Z,4.4
2018-11-11T07:05:15.733Z,4.6
2018-11-11T07:06:06.193Z,4.8
2018-11-11T07:06:56.432Z,4.8
2018-11-11T07:07:46.726Z,4.8
2018-11-11T07:08:36.844Z,4.7
2018-11-11T07:09:26.425Z,4.9
2018-11-11T07:10:16.771Z,4.9
2018-11-11T07:11:06.733Z,4.8
2018-11-11T07:11:56.315Z,4.8
2018-11-11T07:12:47.139Z,5.1
2018-11-11T07:13:36.903Z,5.2
2018-11-11T07:14:26.517Z,5.1
2018-11-11T07:15:16.550Z,5.1
2018-11-11T07:16:07.080Z,5.2
2018-11-11T07:16:56.875Z,5.3
2018-11-11T07:17:47.009Z,5.4
2018-11-11T07:18:37.283Z,5.6
2018-11-11T07:19:26.451Z,5.8
2018-11-11T07:20:17.073Z,5.9
2018-11-11T07:21:07.445Z,6
2018-11-11T07:21:57.798Z,6.2
2018-11-11T07:22:47.797Z,6.3
2018-11-11T07:23:37.717Z,6.4
2018-11-11T07:24:27.401Z,6.3
2018-11-11T07:25:18.018Z,6.3
2018-11-11T07:26:07.202Z,6.2
2018-11-11T07:26:57.570Z,6.1
2018-11-11T07:27:48.469Z,6.3
2018-11-11T07:28:37.387Z,6.3
2018-11-11T07:29:28.058Z,6.3
2018-11-11T07:30:17.635Z,6.4
2018-11-11T07:31:08.150Z,6.4
2018-11-11T07:31:58.205Z,6.7
2018-11-11T07:32:47.997Z,6.5
2018-11-11T07:33:38.142Z,6.4
2018-11-11T07:34:28.209Z,6.4
2018-11-11T07:35:18.439Z,6.5
2018-11-11T07:36:08.628Z,6.9
2018-11-11T07:36:58.854Z,6.7
2018-11-11T07:37:48.876Z,6.8
2018-11-11T07:38:38.364Z,6.8
2018-11-11T07:39:28.167Z,6.8
2018-11-11T07:40:18.549Z,6.7
2018-11-11T07:41:08.587Z,6.8
2018-11-11T07:41:59.189Z,6.8
2018-11-11T07:42:48.722Z,6.8
2018-11-11T07:43:39.118Z,7
2018-11-11T07:44:28.909Z,7.2
2018-11-11T07:45:18.908Z,7.3
2018-11-11T07:46:09.211Z,7.5
2018-11-11T07:46:59.402Z,7.8
2018-11-11T07:47:49.850Z,8
2018-11-11T07:48:39.011Z,8.2
2018-11-11T07:49:28.891Z,8.1
2018-11-11T07:50:19.540Z,8
2018-11-11T07:51:09.309Z,7.9
2018-11-11T07:51:59.725Z,8.1
2018-11-11T07:52:49.503Z,8.2
2018-11-11T07:53:39.228Z,8.2
2018-11-11T07:54:29.816Z,8
2018-11-11T07:55:20.023Z,8.1
2018-11-11T07:56:09.737Z,8
2018-11-11T07:56:59.421Z,7.9
2018-11-11T07:57:49.762Z,8
2018-11-11T07:58:39.918Z,8.1
2018-11-11T07:59:29.900Z,8
2018-11-11T08:00:19.670Z,8.1
2018-11-11T08:01:09.436Z,7.9
2018-11-11T08:01:59.954Z,8.3
2018-11-11T08:02:50.112Z,8.6
2018-11-11T08:03:39.705Z,8.8
2018-11-11T08:04:30.510Z,8.7
2018-11-11T08:05:19.817Z,8.7
2018-11-11T08:06:10.096Z,8.7
2018-11-11T08:07:00.502Z,8.6
2018-11-11T08:07:50.479Z,8.7
2018-11-11T08:08:40.503Z,8.9
2018-11-11T08:09:30.327Z,9.1
2018-11-11T08:10:20.975Z,9.2
2018-11-11T08:11:11.381Z,8.9
2018-11-11T08:12:00.885Z,8.7
2018-11-11T08:12:51.117Z,8.4
2018-11-11T08:13:40.909Z,8.4
2018-11-11T08:14:31.250Z,8.6
2018-11-11T08:15:20.812Z,8.7
2018-11-11T08:16:11.095Z,8.8
2018-11-11T08:17:00.755Z,9.1
2018-11-11T08:17:51.778Z,9.6
2018-11-11T08:18:40.981Z,9.7
2018-11-11T08:19:31.592Z,9.9
2018-11-11T08:20:21.642Z,9.8
2018-11-11T08:21:12.043Z,9.9
2018-11-11T08:22:01.794Z,9.8
2018-11-11T08:22:51.849Z,9.8
2018-11-11T08:23:41.628Z,9.9
2018-11-11T08:24:31.389Z,9.9
2018-11-11T08:25:22.692Z,10.2
2018-11-11T08:26:11.311Z,10.1
2018-11-11T08:27:00.966Z,10.2
2018-11-11T08:27:51.908Z,10.5
2018-11-11T08:28:41.703Z,10.4
2018-11-11T08:29:32.050Z,10.4
2018-11-11T08:30:21.407Z,10.8
2018-11-11T08:31:12.439Z,10.9
2018-11-11T08:32:02.399Z,10.6
2018-11-11T08:32:52.841Z,10.6
2018-11-11T08:33:42.138Z,10.9
2018-11-11T08:34:32.366Z,11
2018-11-11T08:35:22.740Z,10.9
2018-11-11T08:36:12.803Z,10.4
2018-11-11T08:37:02.561Z,10.3
2018-11-11T08:37:52.423Z,10.6
2018-11-11T08:38:42.968Z,10.6
2018-11-11T08:39:32.746Z,10.5
2018-11-11T08:40:22.815Z,10.4
2018-11-11T08:41:12.688Z,10.5
2018-11-11T08:42:02.943Z,10.6
2018-11-11T08:42:53.316Z,10.8
2018-11-11T08:43:43.341Z,11.5
2018-11-11T08:44:33.107Z,11.5
2018-11-11T08:45:23.450Z,11.3
2018-11-11T08:46:13.038Z,11.3
2018-11-11T08:47:03.080Z,11.3
2018-11-11T08:47:53.624Z,11.5
2018-11-11T08:48:43.412Z,11.4
2018-11-11T08:49:34.005Z,11.5
2018-11-11T08:50:23.538Z,11.4
2018-11-11T08:51:13.589Z,11.4
2018-11-11T08:52:04.221Z,11.5
2018-11-11T09:08:44.766Z,12.1
2018-11-11T09:09:34.554Z,11.9
2018-11-11T09:10:25.664Z,11.9
2018-11-11T09:11:15.556Z,12
2018-11-11T09:12:04.225Z,12.1
2018-11-11T09:12:55.031Z,12.3
2018-11-11T09:13:45.093Z,12.5
2018-11-11T09:14:35.456Z,12.6
2018-11-11T09:15:24.366Z,12.7
2018-11-11T09:16:15.576Z,12.7
2018-11-11T09:17:05.200Z,12.9
2018-11-11T09:17:55.430Z,12.6
2018-11-11T09:18:45.451Z,12.6
2018-11-11T09:19:35.230Z,12.8
2018-11-11T09:20:25.851Z,12.8
2018-11-11T09:21:15.817Z,13.1
2018-11-11T09:22:05.425Z,13.3
2018-11-11T09:22:55.196Z,13.1
2018-11-11T09:23:45.373Z,12.7
2018-11-11T09:24:34.923Z,12.4
2018-11-11T09:25:25.733Z,12.4
2018-11-11T09:26:15.534Z,12.8
2018-11-11T09:27:06.361Z,12.9
2018-11-11T09:27:56.153Z,13.3
2018-11-11T09:28:45.918Z,13.2
2018-11-11T09:29:37.081Z,13.3
2018-11-11T09:30:27.472Z,13.2
2018-11-11T09:31:16.380Z,13.1
2018-11-11T09:32:05.596Z,13.1
2018-11-11T09:32:56.479Z,13.3
2018-11-11T09:33:45.765Z,13.4
2018-11-11T09:34:36.637Z,13.2
2018-11-11T09:35:27.828Z,13.1
2018-11-11T09:36:16.492Z,13.1
2018-11-11T09:37:06.524Z,13.3
2018-11-11T09:37:56.356Z,13.5
2018-11-11T09:38:46.771Z,13.3
2018-11-11T09:39:37.052Z,12.6
2018-11-11T09:40:26.760Z,13.3
2018-11-11T09:41:16.819Z,13.5
2018-11-11T09:42:07.192Z,13.7
2018-11-11T09:42:56.817Z,13.8
2018-11-11T09:43:47.007Z,13.4
2018-11-11T09:44:36.664Z,13
2018-11-11T09:45:27.696Z,13.2
2018-11-11T09:46:17.760Z,13.1
2018-11-11T09:47:07.537Z,13.1
2018-11-11T09:47:58.194Z,13.4
2018-11-11T09:48:47.601Z,13.4
2018-11-11T09:49:37.499Z,13.7
2018-11-11T09:50:27.768Z,13.5
2018-11-11T09:51:17.602Z,13.7
2018-11-11T09:52:07.449Z,13.5
2018-11-11T09:52:57.074Z,13.8
2018-11-11T09:53:47.832Z,14
2018-11-11T09:54:38.047Z,14.1
2018-11-11T09:55:27.822Z,14
2018-11-11T09:56:18.236Z,14.2
2018-11-11T09:57:08.015Z,14.4
2018-11-11T09:57:58.127Z,14.4
2018-11-11T09:58:48.919Z,14.3
2018-11-11T09:59:38.755Z,14.4
2018-11-11T10:00:28.515Z,14.7
2018-11-11T10:01:18.271Z,14.8
2018-11-11T10:02:07.735Z,14.1
2018-11-11T10:02:58.457Z,14.1
2018-11-11T10:03:48.235Z,13.3
2018-11-11T10:04:38.562Z,13.3
2018-11-11T10:05:29.114Z,12.9
2018-11-11T10:06:19.123Z,12.8
2018-11-11T10:07:09.544Z,12.9
2018-11-11T10:07:58.444Z,13.4
2018-11-11T10:08:48.330Z,13.2
2018-11-11T10:09:38.289Z,13.6
2018-11-11T10:10:28.880Z,13.8
2018-11-11T10:11:19.294Z,13.9
2018-11-11T10:12:09.473Z,14.5
2018-11-11T10:12:58.837Z,14.9
2018-11-11T10:13:48.298Z,15.2
2018-11-11T10:14:38.944Z,15.4
2018-11-11T10:15:28.982Z,15.4
2018-11-11T10:16:19.125Z,15.3
2018-11-11T10:17:09.126Z,14.9
2018-11-11T10:17:59.563Z,14.8
2018-11-11T10:18:49.644Z,14.9
2018-11-11T10:19:39.586Z,14.5
2018-11-11T10:20:30.522Z,14.6
2018-11-11T10:21:20.049Z,15.1
2018-11-11T10:22:10.030Z,14.9
2018-11-11T10:22:59.913Z,15.1
2018-11-11T10:23:49.873Z,15.3
2018-11-11T10:24:39.667Z,15.1
2018-11-11T10:25:29.779Z,14.9
2018-11-11T10:26:20.363Z,14.8
2018-11-11T10:27:10.751Z,14.6
2018-11-11T10:27:59.690Z,15
2018-11-11T10:28:50.220Z,15.1
2018-11-11T10:29:40.207Z,14.8
2018-11-11T10:30:30.161Z,15
2018-11-11T10:31:19.925Z,15.3
2018-11-11T10:32:10.486Z,15.5
2018-11-11T10:33:00.843Z,15.6
2018-11-11T10:33:50.706Z,15.8
2018-11-11T10:34:40.360Z,15.9
2018-11-11T10:35:31.284Z,15.8
2018-11-11T10:36:20.733Z,15.6
2018-11-11T10:37:10.407Z,15.6
2018-11-11T10:38:00.793Z,15.4
2018-11-11T10:38:50.670Z,15.3
2018-11-11T10:39:41.598Z,15.4
2018-11-11T10:40:31.420Z,15.6
2018-11-11T10:41:21.172Z,16
2018-11-11T10:42:11.157Z,16.3
2018-11-11T10:43:01.376Z,16.3
2018-11-11T10:43:51.335Z,15.9
2018-11-11T10:44:41.440Z,15.4
2018-11-11T10:45:31.432Z,15.5
2018-11-11T10:46:21.585Z,15.3
2018-11-11T10:47:12.370Z,15.7
2018-11-11T10:48:01.930Z,16.1
2018-11-11T10:48:51.972Z,16.1
2018-11-11T10:49:41.757Z,16.3
2018-11-11T10:50:31.030Z,16
2018-11-11T10:51:22.149Z,15.4
2018-11-11T10:52:12.017Z,15.1
2018-11-11T10:53:01.983Z,15
2018-11-11T10:53:52.035Z,15.5
2018-11-11T10:54:42.937Z,16.1
2018-11-11T10:55:32.474Z,16.2
2018-11-11T10:56:21.648Z,16.4
2018-11-11T10:57:12.294Z,16.6
2018-11-11T10:58:02.326Z,16.4
2018-11-11T10:58:52.410Z,16.8
2018-11-11T11:00:31.949Z,16.9
2018-11-11T11:01:22.399Z,17.1
2018-11-11T11:02:12.943Z,17.2
2018-11-11T11:03:02.986Z,16.9
2018-11-11T11:03:52.283Z,16.4
2018-11-11T11:04:42.604Z,16.5
2018-11-11T11:05:32.687Z,16.6
2018-11-11T11:06:23.524Z,16.3
2018-11-11T11:07:13.591Z,15.8
2018-11-11T11:08:03.171Z,15.8
2018-11-11T11:08:52.844Z,15.9
2018-11-11T11:09:42.791Z,15.8
2018-11-11T11:10:33.856Z,15.3
2018-11-11T11:11:23.591Z,15.9
2018-11-11T11:12:13.643Z,16.3
2018-11-11T11:13:03.784Z,16
2018-11-11T11:13:54.599Z,16.1
2018-11-11T11:14:44.125Z,16.2
2018-11-11T11:15:33.408Z,16.3
2018-11-11T11:16:23.968Z,16.1
2018-11-11T11:17:13.755Z,15.3
2018-11-11T11:18:03.822Z,15.5
2018-11-11T11:18:53.295Z,15.9
2018-11-11T11:19:44.211Z,16.2
2018-11-11T11:20:33.976Z,15.8
2018-11-11T11:21:23.758Z,15.4
2018-11-11T11:22:14.371Z,15.8
2018-11-11T11:23:05.684Z,16.3
2018-11-11T11:23:54.259Z,16.2
2018-11-11T11:24:44.000Z,16.6
2018-11-11T11:25:34.258Z,16.1
2018-11-11T11:26:24.410Z,15.6
2018-11-11T11:27:15.031Z,15.8
2018-11-11T11:28:04.599Z,16.3
2018-11-11T11:28:55.097Z,16.5
2018-11-11T11:29:44.643Z,16.3
2018-11-11T11:30:35.237Z,16.4
2018-11-11T11:31:25.293Z,16.5
2018-11-11T11:32:14.928Z,16.4
2018-11-11T11:33:05.107Z,16.1
2018-11-11T11:33:55.317Z,15.6
2018-11-11T11:34:45.265Z,15.3
2018-11-11T11:35:36.126Z,15.6
2018-11-11T11:36:25.149Z,15.4
2018-11-11T11:37:15.769Z,15.2
2018-11-11T11:38:05.350Z,15.2
2018-11-11T11:38:55.599Z,15.4
2018-11-11T11:39:45.384Z,15.4
2018-11-11T11:40:35.724Z,15.5
2018-11-11T11:41:25.815Z,15.6
2018-11-11T11:42:15.536Z,15.9
2018-11-11T11:43:05.314Z,15.8
2018-11-11T11:43:55.547Z,16
2018-11-11T11:44:46.001Z,16.1
2018-11-11T11:45:35.787Z,16.3
2018-11-11T11:46:25.642Z,16
2018-11-11T11:47:16.721Z,16.1
2018-11-11T11:48:06.806Z,16.8
2018-11-11T11:48:56.437Z,17.3
2018-11-11T11:49:45.581Z,17.1
2018-11-11T11:50:35.947Z,15.9
2018-11-11T11:51:26.018Z,15.9
2018-11-11T11:52:17.162Z,15.8
2018-11-11T11:53:07.601Z,15.8
2018-11-11T11:53:56.649Z,16
2018-11-11T11:54:46.747Z,16.2
2018-11-11T11:55:36.781Z,16.6
2018-11-11T11:56:26.844Z,17.1
2018-11-11T11:57:16.923Z,17.1
2018-11-11T11:58:06.468Z,17.4
2018-11-11T11:58:56.463Z,17.4
2018-11-11T11:59:47.084Z,17.4
2018-11-11T12:00:36.963Z,17.2
2018-11-11T12:01:26.937Z,16.8
2018-11-11T12:02:16.969Z,16.6
2018-11-11T12:03:06.771Z,16.3
2018-11-11T12:03:57.138Z,15.7
2018-11-11T12:04:47.267Z,15.6
2018-11-11T12:05:36.941Z,16
2018-11-11T12:06:27.268Z,16.1
2018-11-11T12:07:17.653Z,16
2018-11-11T12:08:07.210Z,15.8
2018-11-11T12:08:57.985Z,16
2018-11-11T12:09:47.518Z,16.6
2018-11-11T12:10:37.220Z,16.6
2018-11-11T12:11:27.105Z,16.6
2018-11-11T12:12:17.817Z,16.2
2018-11-11T12:13:07.379Z,16.6
2018-11-11T12:13:58.102Z,16.7
2018-11-11T12:14:47.312Z,16.6